This is the latest recevied weather packets stored in our database for station/object KC9ZAR-13. If no packets are shown the sender has not sent any weather packets the latest 10 day(s).
| Time | Temp. | Humidity | Pressure | Rain* | Wind** | Luminosity | Snow |
|---|---|---|---|---|---|---|---|
| 1777559706 | 12.78° C | 68% | 1016.4 hPa | 0 mm | - | 0 W/m² | - |
| 1777549505 | 5.56° C | 92% | 1015.5 hPa | 0 mm | - | 0 W/m² | - |
| 1777548605 | 5.56° C | 91% | 1015.6 hPa | 0 mm | - | 0 W/m² | - |
| 1777547705 | 5° C | 91% | 1015.2 hPa | 0 mm | - | 0 W/m² | - |
| 1777547106 | 5° C | 91% | 1014.9 hPa | 0 mm | - | 0 W/m² | - |
| 1777546505 | 5.56° C | 90% | 1014.9 hPa | 0 mm | - | 0 W/m² | - |
| 1777545305 | 5.56° C | 89% | 1014.9 hPa | 0 mm | - | 0 W/m² | - |
| 1777542905 | 6.67° C | 87% | 1014.5 hPa | 0 mm | - | 0 W/m² | - |
| 1777540505 | 7.22° C | 84% | 1014.7 hPa | 0 mm | - | 0 W/m² | - |
| 1777539905 | 7.22° C | 84% | 1014.7 hPa | 0 mm | - | 0 W/m² | - |
| 1777539305 | 7.78° C | 83% | 1014.6 hPa | 0 mm | - | 0 W/m² | - |
| 1777539005 | 7.78° C | 83% | 1014.6 hPa | 0 mm | - | 0 W/m² | - |
| 1777538405 | 7.78° C | 83% | 1014.5 hPa | 0 mm | - | 0 W/m² | - |
| 1777536905 | 7.78° C | 83% | 1014.4 hPa | 0 mm | - | 0 W/m² | - |
| 1777536305 | 7.78° C | 83% | 1014.4 hPa | 0 mm | - | 0 W/m² | - |
| 1777535705 | 7.78° C | 84% | 1014.3 hPa | 0 mm | - | 0 W/m² | - |
| 1777534805 | 7.78° C | 82% | 1014.1 hPa | 0 mm | - | 0 W/m² | - |
| 1777532706 | 8.89° C | 78% | 1014.2 hPa | 0 mm | - | 0 W/m² | - |
| 1777532405 | 8.89° C | 77% | 1014.3 hPa | 0 mm | - | 0 W/m² | - |
| 1777530605 | 9.44° C | 75% | 1014.5 hPa | 0 mm | - | 0 W/m² | - |
| 1777529105 | 9.44° C | 75% | 1014.6 hPa | 0 mm | - | 0 W/m² | - |
| 1777526704 | 9.44° C | 80% | 1014.6 hPa | 0 mm | - | 0 W/m² | - |
| 1777521905 | 11.11° C | 73% | 1014.4 hPa | 0 mm | - | 0 W/m² | - |
| 1777521005 | 11.67° C | 71% | 1014.3 hPa | 0 mm | - | 0 W/m² | - |
| 1777520705 | 12.22° C | 71% | 1014.3 hPa | 0 mm | - | 0 W/m² | - |
* Rain latest hour (hover to see other rain measurements)
** Current wind speed in m/s (hover to see current wind gust speed)